Key West, FL

11:53 PM EDT on July 24, 2016 (GMT -0400)
Big Coppitt Key Gulfside | | Change Station

Elev 31 ft 24.60 °N, 81.67 °W | Updated 12 minutes ago

Clear
Clear
81.5 °F
Feels Like 84 °F
N
1.1
Wind Variable Wind from ESE

Today
High -- | Low -- °F
--% Chance of Precip.
Yesterday
High -- | Low -- °F
Precip. -- in
Pressure 30.06 in
Visibility 10.0 miles
Clouds Clear
Heat Index 84 °F
Dew Point 68 °F
Humidity 63%
Rainfall 0.09 in
Snow Depth Not available.
6:51 AM 8:14 PM
Waning Gibbous, 70% visible
METAR KEYW 250253Z AUTO 12004KT 10SM CLR 28/22 A3006 RMK AO2 SLP178 T02780217 51002 $
Pressure 30.06 in
Visibility 10.0 miles
Clouds Clear
Heat Index 84 °F
Dew Point 68 °F
Humidity 63%
Rainfall 0.09 in
Snow Depth Not available.
6:51 AM 8:14 PM
Waning Gibbous, 70% visible
METAR KEYW 250253Z AUTO 12004KT 10SM CLR 28/22 A3006 RMK AO2 SLP178 T02780217 51002 $

10-Day Weather Forecast

Almanac

Astronomy

Jul. 24, 2016 Rise Set
Actual Time
Civil Twilight
Nautical Twilight
Astronomical Twilight
Moon
Length of Visible Light
Length of Day
Tomorrow will be .
, % of the Moon is Illuminated

Today's Extremes

State Highs State Lows

Community

WunderPhotos

Upload Photos

1,927,256 photos uploaded!

WunderBlog® & News

Nearby

Air Quality

  Air Quality AQ Index Pollutant
Not available.

Snow Depth

Station Depth Elevation

Earthquake Activity

City Distance Mag. Time & Date
Minimum magnitude displayed is 2.5.

Coastal Water Temperatures

Place Temperature

Stations

Nearby Weather Stations

Station Location Temp. Windchill Dew Point Humidity Wind Precip. Elev Updated Type
                   

Watches & Warnings

There are currently no watches in effect.